الصفحة الرئيسية
METAR-TAF:

METAR-TAF

مطار :

ماريا, تركمانستان

دائرة عرض: 37-36-24N, خط طول: 061-54-05E, ارتفاع: 222 متر

مراقبة الطقس الحالي

تاريخ ووقت الإصدار 1ساعة و 45 دقيقة قبل الساعة 21:00UTC
ريح 6 عقدة من الشمال
درجة الحرارة 26°درجة مئوية
الرطوبة 48%
ضغط 1008 hPa
الرؤية: 6000 متر

METAR: UTAM 242100Z 36006KT 6000 NSC 26/14 Q1008 R88/CLRD70 NOSIG

زمن: 03:45 (22:45 UTC)

توقعات

تاريخ ووقت الإصدار 6ساعات و 15 دقيقة قبل الساعة 16:30UTC
التوقعات صالحة من24 الساعة 18 UTC إلى 25 الساعة 18 UTC
ريح 12 عقدة من الشمال/الشمال الشرقي
الرؤية: 5000 متر
غيوم متفرقة على ارتفاع 5000 قدم
مؤقت
من 24 الساعة 18 UTC إلى 25 الساعة 04 UTC
ريح 4 عقدةمن اتجاهات متغيرة
الرؤية: 3000 متر
العجاج, دخان,

TAF: UTAM 241630Z 2418/2518 02012KT 5000 SCT050 TEMPO 2418/2504 VRB04KT 3000 HZ FU

أرصاد الطقس والتوقعات من أكثر من 4000 مطار (تقارير الطقس للمطار METAR والتنبؤ بالطقس بالمطارTAF).

المحطات المتاحة هي النقط الصفراء والحمراء على الخريطة.

حرك المؤشر فوق النقطة لمعرفة اسم المحطة.

ثم انقر لمعرفة أرصاد وتوقعات الطقس.

لتغيير الخارطة: اضغط على الأزرار الخضراء مع رمز الصليب الأسود للتكبير. على الزر الأخضر مع شرطة للتصغير، أو على الأسهم الخضراء للخرائط المجاورة.


METAR-TAF: